Terminal Aerodrome Forecast
Issued by NWS

Current Version | Previous Version | Text Only | Print | Product List | Glossary On
Versions: 1 2 3 4 5 6 7 8 9 10 11 12 13 14 15 16 17 18 19 20 21 22 23 24 25 26 27 28 29 30 31 32
766 FTUS41 KBOX 141128 TAFHYA TAF KHYA 141128Z 1412/1512 31014G28KT P6SM BKN025 FM141600 32012G20KT P6SM FEW025 FM142200 31008KT P6SM FEW250 FM150300 31004KT P6SM FEW250=

USA.gov is the U.S. government's official web portal to all federal, state and local government web resources and services.